Time;durP1;ratioP1;P1;durP2;ratioP2;P2;SDS_P1;SDS_P2;PMS_P1;PMS_P2;Temp;Humidity;BMP_temperature;BMP_pressure;BME280_temperature;BME280_humidity;BME280_pressure;Samples;Min_cycle;Max_cycle;Signal;HPM_P1;HPM_P2
2022/09/05 00:01:49;;;;;;;5.13;4.63;;;19.50;81.20;;;;;;4953521;28;20965;-76
2022/09/05 00:04:25;;;;;;;4.70;4.20;;;19.40;81.10;;;;;;4954807;28;20430;-76
2022/09/05 00:07:01;;;;;;;6.17;4.70;;;19.50;81.30;;;;;;4954740;28;20996;-76
2022/09/05 00:09:58;;;;;;;4.50;4.10;;;19.40;81.30;;;;;;4954677;28;20486;-76
2022/09/05 00:12:32;;;;;;;4.63;4.23;;;19.40;81.50;;;;;;4955012;28;20426;-76
2022/09/05 00:15:19;;;;;;;4.80;4.40;;;19.40;81.50;;;;;;4953471;28;20446;-76
2022/09/05 00:18:05;;;;;;;5.43;3.97;;;19.40;81.60;;;;;;4954824;28;20964;-76
2022/09/05 00:21:02;;;;;;;4.37;4.00;;;19.30;81.60;;;;;;4957747;28;20870;-76
2022/09/05 00:24:05;;;;;;;4.87;4.47;;;19.30;81.60;;;;;;4958135;28;20450;-78
2022/09/05 00:26:59;;;;;;;4.47;3.83;;;19.30;81.70;;;;;;4957981;28;20492;-76
2022/09/05 00:29:44;;;;;;;5.00;3.80;;;19.30;81.80;;;;;;4956670;28;20466;-76
2022/09/05 00:32:50;;;;;;;4.70;4.30;;;19.20;81.80;;;;;;4956655;28;20452;-76
2022/09/05 00:35:34;;;;;;;4.50;4.10;;;19.20;81.90;;;;;;4957890;28;20426;-76
2022/09/05 00:38:13;;;;;;;5.80;4.50;;;19.20;81.90;;;;;;4957784;28;20509;-76
2022/09/05 00:40:45;;;;;;;5.03;4.60;;;19.20;82.00;;;;;;4958030;28;20472;-76
2022/09/05 00:43:16;;;;;;;4.73;4.33;;;19.10;81.90;;;;;;4958079;28;20443;-76
2022/09/05 00:45:50;;;;;;;4.60;4.20;;;19.10;82.00;;;;;;4956706;28;20451;-76
2022/09/05 00:48:24;;;;;;;4.57;4.17;;;19.10;82.00;;;;;;4956410;28;20443;-76
2022/09/05 00:51:13;;;;;;;4.80;4.37;;;19.10;82.10;;;;;;4957550;28;20496;-76
2022/09/05 00:53:53;;;;;;;4.93;4.33;;;19.10;82.30;;;;;;4956349;29;20533;-76
2022/09/05 00:56:35;;;;;;;5.20;4.70;;;19.10;82.30;;;;;;4956537;29;20460;-76
2022/09/05 00:59:38;;;;;;;4.70;4.30;;;19.00;82.30;;;;;;4957836;28;20465;-76
2022/09/05 01:02:16;;;;;;;5.23;4.17;;;19.00;82.50;;;;;;4957666;28;20509;-76
2022/09/05 01:04:51;;;;;;;4.83;4.43;;;18.90;82.40;;;;;;4957407;28;20423;-76
2022/09/05 01:07:33;;;;;;;4.57;4.13;;;18.90;82.50;;;;;;4957875;28;20904;-76
2022/09/05 01:10:19;;;;;;;5.47;3.80;;;18.90;82.50;;;;;;4957277;28;20454;-76
2022/09/05 01:13:05;;;;;;;4.20;3.80;;;18.90;82.60;;;;;;4957403;28;20427;-76
2022/09/05 01:15:43;;;;;;;4.10;3.70;;;18.90;82.60;;;;;;4957247;28;20422;-76
2022/09/05 01:18:29;;;;;;;6.23;5.00;;;18.90;82.70;;;;;;4957330;28;20524;-76
2022/09/05 01:21:36;;;;;;;4.33;3.93;;;18.90;82.80;;;;;;4955757;28;20827;-76
2022/09/05 01:24:28;;;;;;;4.80;4.40;;;18.90;82.80;;;;;;4937281;28;20450;-76
2022/09/05 01:27:33;;;;;;;4.80;4.27;;;18.80;82.80;;;;;;4955751;28;20950;-76
2022/09/05 01:30:30;;;;;;;4.13;3.73;;;18.80;82.80;;;;;;4957084;28;20466;-76
2022/09/05 01:33:10;;;;;;;4.67;4.27;;;18.80;82.90;;;;;;4955554;28;20965;-76
2022/09/05 01:35:56;;;;;;;4.17;3.80;;;18.80;82.90;;;;;;4957060;28;20427;-76
2022/09/05 01:38:37;;;;;;;4.90;4.40;;;18.80;83.00;;;;;;4955428;28;20566;-76
2022/09/05 01:41:20;;;;;;;4.50;4.10;;;18.80;83.00;;;;;;4956760;28;20481;-76
2022/09/05 01:44:10;;;;;;;4.53;4.13;;;18.80;83.10;;;;;;4955408;29;20471;-76
2022/09/05 01:46:51;;;;;;;5.03;4.53;;;18.70;83.10;;;;;;4955286;29;20458;-75
2022/09/05 01:49:28;;;;;;;4.60;4.20;;;18.70;83.10;;;;;;4956434;28;20924;-75
2022/09/05 01:52:18;;;;;;;9.63;4.37;;;18.70;83.20;;;;;;4955192;29;20820;-75
2022/09/05 01:55:03;;;;;;;4.50;3.97;;;18.70;83.20;;;;;;4956399;28;20487;-75
2022/09/05 01:57:43;;;;;;;4.53;4.13;;;18.70;83.20;;;;;;4956685;28;20466;-75
2022/09/05 02:00:16;;;;;;;4.70;4.30;;;18.70;83.30;;;;;;4956549;28;20486;-75
2022/09/05 02:03:01;;;;;;;4.03;3.70;;;18.70;83.30;;;;;;4955063;28;20442;-75
2022/09/05 02:05:59;;;;;;;4.93;4.30;;;18.70;83.40;;;;;;4956255;28;20821;-75
2022/09/05 02:09:02;;;;;;;4.57;4.17;;;18.70;83.40;;;;;;4954905;28;20823;-75
2022/09/05 02:11:40;;;;;;;4.83;4.40;;;18.60;83.40;;;;;;4954869;28;20458;-75
2022/09/05 02:14:19;;;;;;;5.30;4.07;;;18.60;83.40;;;;;;4956365;28;20427;-75
2022/09/05 02:17:20;;;;;;;4.67;4.03;;;18.60;84.00;;;;;;4956329;28;20431;-74
2022/09/05 02:20:17;;;;;;;4.50;4.10;;;18.60;83.50;;;;;;4954514;28;20488;-75
2022/09/05 02:23:00;;;;;;;4.73;4.30;;;18.60;83.50;;;;;;4956224;28;20425;-75
2022/09/05 02:25:40;;;;;;;4.83;4.33;;;18.60;83.50;;;;;;4954670;29;20489;-75
2022/09/05 02:28:36;;;;;;;5.70;4.67;;;18.60;83.60;;;;;;4954617;28;20446;-75
2022/09/05 02:31:12;;;;;;;4.47;4.07;;;18.60;84.30;;;;;;4955980;28;20472;-75
2022/09/05 02:33:54;;;;;;;5.60;5.10;;;18.50;83.50;;;;;;4956391;28;20478;-75
2022/09/05 02:36:38;;;;;;;4.73;4.30;;;18.60;83.70;;;;;;4955996;28;20434;-75
2022/09/05 02:39:17;;;;;;;4.80;4.10;;;18.50;83.60;;;;;;4956352;28;20481;-75
2022/09/05 02:42:14;;;;;;;5.03;4.50;;;18.50;83.60;;;;;;4954550;28;20443;-75
2022/09/05 02:45:13;;;;;;;6.47;4.63;;;18.60;83.70;;;;;;4956608;28;20482;-75
2022/09/05 02:48:08;;;;;;;5.03;4.63;;;18.60;83.80;;;;;;4954746;28;20514;-75
2022/09/05 02:51:04;;;;;;;4.57;4.17;;;18.50;83.80;;;;;;4954877;28;20501;-75
2022/09/05 02:53:58;;;;;;;5.43;4.93;;;18.50;83.80;;;;;;4955730;28;20445;-75
2022/09/05 02:56:55;;;;;;;5.10;4.60;;;18.50;83.90;;;;;;4955757;28;20905;-75
2022/09/05 02:59:54;;;;;;;5.00;4.60;;;18.50;83.90;;;;;;4955354;28;20977;-75
2022/09/05 03:02:29;;;;;;;5.50;5.00;;;18.50;84.00;;;;;;4955604;28;20429;-75
2022/09/05 03:05:05;;;;;;;6.50;4.90;;;18.40;84.00;;;;;;4954256;28;20462;-75
2022/09/05 03:08:02;;;;;;;5.43;4.40;;;18.50;84.10;;;;;;4954347;28;20855;-75
2022/09/05 03:11:02;;;;;;;6.30;5.70;;;18.40;84.10;;;;;;4953981;28;20470;-75
2022/09/05 03:14:22;;;;;;;5.17;4.57;;;18.40;84.20;;;;;;4954017;29;20439;-75
2022/09/05 03:17:19;;;;;;;6.10;5.50;;;18.40;84.20;;;;;;4955360;28;20431;-75
2022/09/05 03:20:31;;;;;;;5.00;4.60;;;18.40;84.20;;;;;;4955054;28;20548;-75
2022/09/05 03:23:38;;;;;;;5.57;5.07;;;18.40;84.30;;;;;;4955093;28;20462;-75
2022/09/05 03:26:27;;;;;;;6.10;5.40;;;18.40;84.30;;;;;;4953917;28;20814;-75
2022/09/05 03:29:34;;;;;;;5.27;4.70;;;18.40;84.40;;;;;;4955402;28;20423;-75
2022/09/05 03:32:21;;;;;;;5.50;4.70;;;18.30;84.30;;;;;;4940908;28;20859;-75
2022/09/05 03:35:21;;;;;;;5.57;4.70;;;18.30;84.30;;;;;;4955351;28;20439;-75
2022/09/05 03:38:05;;;;;;;5.20;4.20;;;18.30;84.40;;;;;;4955330;28;20419;-75
2022/09/05 03:40:57;;;;;;;5.10;4.70;;;18.30;84.40;;;;;;4955252;28;20461;-75
2022/09/05 03:43:53;;;;;;;5.00;4.60;;;18.30;84.50;;;;;;4955274;28;20837;-75
2022/09/05 03:46:39;;;;;;;6.00;4.30;;;18.30;84.50;;;;;;4953620;29;20462;-75
2022/09/05 03:49:39;;;;;;;4.60;4.20;;;18.30;84.60;;;;;;4955121;28;20505;-75
2022/09/05 03:52:38;;;;;;;5.80;5.23;;;18.30;84.70;;;;;;4955149;28;20460;-75
2022/09/05 03:55:38;;;;;;;5.03;4.53;;;18.20;84.70;;;;;;4956100;28;20522;-75
2022/09/05 03:58:56;;;;;;;5.17;4.33;;;18.30;84.80;;;;;;4959370;28;20794;-75
2022/09/05 04:01:34;;;;;;;5.50;4.43;;;18.20;84.70;;;;;;4954306;28;20505;-75
2022/09/05 04:04:30;;;;;;;4.63;4.20;;;18.20;85.40;;;;;;4958998;28;20530;-75
2022/09/05 04:07:21;;;;;;;5.43;5.03;;;18.20;84.90;;;;;;4958628;28;20949;-75
2022/09/05 04:10:23;;;;;;;4.80;4.40;;;18.20;84.90;;;;;;4957026;28;20948;-75
2022/09/05 04:12:57;;;;;;;5.47;4.43;;;18.20;85.00;;;;;;4957096;29;20417;-75
2022/09/05 04:15:31;;;;;;;5.47;4.70;;;18.10;84.90;;;;;;4958521;28;20415;-75
2022/09/05 04:18:05;;;;;;;5.13;4.63;;;18.10;85.00;;;;;;4958560;28;20513;-75
2022/09/05 04:20:41;;;;;;;5.00;4.50;;;18.10;85.00;;;;;;4956797;28;20551;-75
2022/09/05 04:23:22;;;;;;;6.10;5.00;;;18.10;85.10;;;;;;4958635;28;20943;-75
2022/09/05 04:26:09;;;;;;;5.37;4.10;;;18.10;85.20;;;;;;4958534;28;20402;-75
2022/09/05 04:28:52;;;;;;;5.20;4.70;;;18.00;85.40;;;;;;4956899;28;20458;-75
2022/09/05 04:31:30;;;;;;;4.83;4.43;;;18.10;85.30;;;;;;4957971;28;20538;-75
2022/09/05 04:34:15;;;;;;;6.20;4.33;;;18.00;85.30;;;;;;4958059;28;20514;-75
2022/09/05 04:36:45;;;;;;;5.87;4.73;;;18.00;85.30;;;;;;4956771;28;20450;-75
2022/09/05 04:39:27;;;;;;;4.90;4.23;;;18.00;85.40;;;;;;4957839;28;20537;-76
2022/09/05 04:42:02;;;;;;;6.13;4.70;;;18.00;85.50;;;;;;4956526;28;20443;-75
2022/09/05 04:44:35;;;;;;;5.47;4.70;;;18.00;85.50;;;;;;4956554;28;20446;-74
2022/09/05 04:47:09;;;;;;;6.40;5.73;;;18.00;85.60;;;;;;4956383;28;20458;-75
2022/09/05 04:49:49;;;;;;;8.13;5.37;;;17.90;85.60;;;;;;4958173;28;20820;-75
2022/09/05 04:52:55;;;;;;;6.77;5.47;;;18.00;85.90;;;;;;4957718;28;20476;-75
2022/09/05 04:55:26;;;;;;;5.23;4.73;;;17.90;85.90;;;;;;4956343;29;20425;-75
2022/09/05 04:57:59;;;;;;;5.20;4.77;;;17.90;85.90;;;;;;4957863;28;20457;-75
2022/09/05 05:00:41;;;;;;;5.70;4.77;;;17.90;86.00;;;;;;4956129;28;20479;-76
2022/09/05 05:03:31;;;;;;;6.73;4.87;;;17.90;86.10;;;;;;4956108;28;20417;-75
2022/09/05 05:06:28;;;;;;;6.50;4.80;;;17.90;86.10;;;;;;4955788;28;20517;-75
2022/09/05 05:09:18;;;;;;;5.97;5.43;;;17.90;86.20;;;;;;4957605;28;20426;-75
2022/09/05 05:11:51;;;;;;;5.60;5.10;;;17.90;86.20;;;;;;4956105;28;20901;-75
2022/09/05 05:14:45;;;;;;;5.20;4.80;;;17.90;86.30;;;;;;4956089;28;20445;-76
2022/09/05 05:17:37;;;;;;;7.20;5.40;;;17.90;86.40;;;;;;4955974;28;20439;-75
2022/09/05 05:20:30;;;;;;;5.77;5.17;;;17.90;86.40;;;;;;4957498;28;20481;-75
2022/09/05 05:23:14;;;;;;;7.60;5.40;;;17.90;86.50;;;;;;4956153;28;20817;-75
2022/09/05 05:25:49;;;;;;;7.13;5.13;;;17.90;86.60;;;;;;4956974;28;20431;-76
2022/09/05 05:28:26;;;;;;;6.07;5.37;;;17.90;86.70;;;;;;4955962;28;20417;-76
2022/09/05 05:30:56;;;;;;;7.50;5.27;;;17.90;86.80;;;;;;4955686;28;20500;-76
2022/09/05 05:33:32;;;;;;;8.50;6.20;;;17.90;86.90;;;;;;4955649;29;20454;-75
2022/09/05 05:36:03;;;;;;;7.57;6.70;;;17.90;87.00;;;;;;4956226;28;20428;-76
2022/09/05 05:38:42;;;;;;;9.43;7.73;;;17.90;87.10;;;;;;4955860;29;20454;-75
2022/09/05 05:41:18;;;;;;;6.40;5.80;;;17.90;87.20;;;;;;4955585;28;20620;-76
2022/09/05 05:43:48;;;;;;;6.13;5.30;;;17.90;87.30;;;;;;4956794;28;20427;-76
2022/09/05 05:46:32;;;;;;;6.60;4.70;;;17.90;87.30;;;;;;4956658;28;20458;-76
2022/09/05 05:49:26;;;;;;;7.03;5.20;;;17.90;87.40;;;;;;4956666;28;20480;-76
2022/09/05 05:52:12;;;;;;;6.30;5.80;;;18.00;87.60;;;;;;4956771;28;20533;-76
2022/09/05 05:54:51;;;;;;;5.70;5.20;;;18.00;87.60;;;;;;4952092;28;20425;-76
2022/09/05 05:58:02;;;;;;;6.13;5.53;;;18.00;87.70;;;;;;4956512;28;20446;-76
2022/09/05 06:00:51;;;;;;;7.80;5.73;;;18.00;87.90;;;;;;4956622;28;20488;-76
2022/09/05 06:03:56;;;;;;;5.60;5.10;;;18.00;87.90;;;;;;4956849;29;20423;-76
2022/09/05 06:06:44;;;;;;;6.00;5.40;;;18.10;88.10;;;;;;4955788;28;20437;-76
2022/09/05 06:09:45;;;;;;;10.50;9.50;;;18.10;88.20;;;;;;4953403;28;20817;-76
2022/09/05 06:13:11;;;;;;;6.70;6.10;;;18.20;88.40;;;;;;4954814;29;20462;-76
2022/09/05 06:16:42;;;;;;;10.13;5.70;;;18.30;88.50;;;;;;4954292;29;20444;-76
2022/09/05 06:19:36;;;;;;;5.57;5.00;;;18.40;89.20;;;;;;4953689;28;20451;-77
2022/09/05 06:22:47;;;;;;;10.50;6.17;;;18.50;88.60;;;;;;4952748;29;20482;-77
2022/09/05 06:25:59;;;;;;;7.00;5.67;;;18.70;88.90;;;;;;4954768;29;20489;-77
2022/09/05 06:28:36;;;;;;;5.87;5.37;;;18.80;88.90;;;;;;4954704;28;20422;-77
2022/09/05 06:31:19;;;;;;;5.77;5.27;;;18.80;88.80;;;;;;4956070;28;20466;-78
2022/09/05 06:34:22;;;;;;;8.57;6.10;;;18.90;89.00;;;;;;4954428;29;20451;-78
2022/09/05 06:37:10;;;;;;;6.10;5.60;;;18.90;89.00;;;;;;4951316;28;20482;-77
2022/09/05 06:39:57;;;;;;;7.23;6.50;;;19.10;89.10;;;;;;4955757;28;20486;-77
2022/09/05 06:42:32;;;;;;;7.67;7.07;;;19.20;89.10;;;;;;4954411;28;20562;-77
2022/09/05 06:45:34;;;;;;;8.67;5.23;;;19.30;89.10;;;;;;4954387;29;20806;-77
2022/09/05 06:48:11;;;;;;;6.43;5.93;;;19.40;89.00;;;;;;4955587;28;20504;-77
2022/09/05 06:51:18;;;;;;;6.10;5.50;;;19.40;88.90;;;;;;4955819;28;20454;-77
2022/09/05 06:54:27;;;;;;;6.30;5.70;;;19.50;88.90;;;;;;4955584;28;20430;-77
2022/09/05 06:57:17;;;;;;;7.70;5.87;;;19.50;89.00;;;;;;4954251;29;20869;-77
2022/09/05 07:00:11;;;;;;;6.17;5.57;;;19.50;89.00;;;;;;4955764;28;20462;-77
2022/09/05 07:03:17;;;;;;;8.83;5.80;;;19.60;89.00;;;;;;4954109;29;20470;-77
2022/09/05 07:05:54;;;;;;;8.87;6.27;;;19.60;89.00;;;;;;4955588;28;20430;-78
2022/09/05 07:08:30;;;;;;;5.47;4.97;;;19.70;89.80;;;;;;4955968;29;20466;-77
2022/09/05 07:11:13;;;;;;;6.23;5.63;;;19.70;89.20;;;;;;4955312;28;20949;-78
2022/09/05 07:13:56;;;;;;;8.27;7.37;;;19.70;89.20;;;;;;4955764;28;20442;-77
2022/09/05 07:16:37;;;;;;;8.50;6.10;;;19.80;89.40;;;;;;4954097;28;20454;-78
2022/09/05 07:19:27;;;;;;;6.13;5.63;;;19.90;89.50;;;;;;4954095;28;20541;-77
2022/09/05 07:22:12;;;;;;;8.67;6.60;;;19.90;89.40;;;;;;4955299;28;20494;-78
2022/09/05 07:25:45;;;;;;;8.80;6.03;;;20.10;89.70;;;;;;4956204;29;20457;-78
2022/09/05 07:28:53;;;;;;;6.57;5.97;;;20.20;89.70;;;;;;4958549;28;20426;-77
2022/09/05 07:31:58;;;;;;;10.27;5.57;;;20.40;89.70;;;;;;4949205;29;20544;-77
2022/09/05 07:35:16;;;;;;;5.80;5.30;;;20.60;89.60;;;;;;4964967;28;20454;-77
2022/09/05 07:45:09;;;;;;;6.50;5.90;;;21.30;89.20;;;;;;4960209;29;20469;-77
2022/09/05 08:02:58;;;;;;;8.10;5.50;;;22.00;88.70;;;;;;4960936;29;20971;-78
2022/09/05 08:06:04;;;;;;;9.70;6.20;;;22.00;88.60;;;;;;4959639;28;20490;-78
2022/09/05 08:09:10;;;;;;;7.53;5.93;;;22.10;88.50;;;;;;4961045;28;20473;-78
2022/09/05 08:15:36;;;;;;;7.87;6.53;;;22.40;88.20;;;;;;4959316;28;20458;-78
2022/09/05 08:18:35;;;;;;;7.93;5.77;;;22.50;88.00;;;;;;4960887;28;20945;-78
2022/09/05 08:21:09;;;;;;;6.70;6.00;;;22.50;87.70;;;;;;4959740;29;20535;-78
2022/09/05 08:23:52;;;;;;;7.27;6.67;;;22.50;87.50;;;;;;4961064;28;20469;-78
2022/09/05 08:26:31;;;;;;;5.97;5.40;;;22.40;87.40;;;;;;4959720;29;20466;-78
2022/09/05 08:29:07;;;;;;;6.80;6.13;;;22.30;87.40;;;;;;4959402;28;20533;-78
2022/09/05 08:31:40;;;;;;;7.90;7.10;;;22.20;87.30;;;;;;4961273;28;20519;-78
2022/09/05 08:34:14;;;;;;;6.03;5.43;;;22.20;87.40;;;;;;4959896;28;20827;-79
2022/09/05 08:36:46;;;;;;;6.33;5.70;;;22.20;87.50;;;;;;4959228;28;20447;-78
2022/09/05 08:39:20;;;;;;;6.70;6.00;;;22.20;87.50;;;;;;4961185;28;20446;-78
2022/09/05 08:42:10;;;;;;;6.43;5.83;;;22.20;87.40;;;;;;4957870;28;20465;-78
2022/09/05 08:44:41;;;;;;;6.83;6.33;;;22.20;87.20;;;;;;4961035;28;20785;-78
2022/09/05 08:47:38;;;;;;;6.73;5.60;;;22.20;87.40;;;;;;4958953;29;20464;-78
2022/09/05 08:50:43;;;;;;;6.60;5.70;;;22.40;87.90;;;;;;4960744;28;20534;-78
2022/09/05 08:53:20;;;;;;;7.50;6.10;;;22.60;87.90;;;;;;4959088;29;20934;-78
2022/09/05 08:56:17;;;;;;;16.60;7.57;;;22.90;87.90;;;;;;4959680;29;20462;-78
2022/09/05 08:59:00;;;;;;;17.23;8.50;;;23.10;87.90;;;;;;4959849;29;20446;-79
2022/09/05 09:02:05;;;;;;;6.80;6.10;;;23.20;88.10;;;;;;4958809;29;20816;-79
2022/09/05 09:05:12;;;;;;;67.27;18.00;;;23.40;87.90;;;;;;4960811;28;20442;-78
2022/09/05 09:07:46;;;;;;;7.73;6.13;;;23.60;87.80;;;;;;4959261;28;20450;-79
2022/09/05 09:10:29;;;;;;;6.30;5.80;;;23.70;87.80;;;;;;4960539;28;20476;-78
2022/09/05 09:13:26;;;;;;;14.63;6.47;;;23.80;87.60;;;;;;4961998;28;20431;-79
2022/09/05 09:16:05;;;;;;;9.20;6.03;;;24.00;87.30;;;;;;4959336;29;20498;-78
2022/09/05 09:18:56;;;;;;;6.87;6.27;;;24.00;86.80;;;;;;4961892;28;20433;-78
2022/09/05 09:21:29;;;;;;;6.47;5.73;;;24.10;86.30;;;;;;4961548;28;20450;-78
2022/09/05 09:24:07;;;;;;;6.37;5.27;;;24.20;86.60;;;;;;4961261;29;20434;-79
2022/09/05 09:26:42;;;;;;;6.87;6.23;;;24.20;86.30;;;;;;4960812;29;20433;-79
2022/09/05 09:29:14;;;;;;;6.13;5.50;;;24.20;86.10;;;;;;4960738;28;20861;-78
2022/09/05 09:31:58;;;;;;;6.60;5.93;;;24.30;86.00;;;;;;4960063;28;20459;-78
2022/09/05 09:34:47;;;;;;;6.30;5.10;;;24.30;85.60;;;;;;4959509;28;20534;-78
2022/09/05 09:38:01;;;;;;;6.07;5.47;;;24.40;85.80;;;;;;4960384;29;20976;-79
2022/09/05 09:41:07;;;;;;;5.80;5.30;;;24.50;86.00;;;;;;4948388;28;20486;-78
2022/09/05 09:44:01;;;;;;;7.47;5.93;;;24.70;86.50;;;;;;4961044;29;20796;-78
2022/09/05 09:46:40;;;;;;;6.77;5.93;;;24.80;85.90;;;;;;4960363;28;20439;-79
2022/09/05 09:49:29;;;;;;;8.63;5.73;;;24.90;86.00;;;;;;4959256;28;20466;-78
2022/09/05 09:52:36;;;;;;;6.30;5.73;;;25.00;85.70;;;;;;4973792;28;20453;-78
2022/09/05 09:55:41;;;;;;;6.77;5.73;;;25.10;85.50;;;;;;4958496;29;20999;-78
2022/09/05 09:58:50;;;;;;;7.83;5.27;;;25.10;85.30;;;;;;4959625;28;20509;-78
2022/09/05 10:01:29;;;;;;;8.50;5.60;;;25.20;85.30;;;;;;4959365;28;20470;-78
2022/09/05 10:04:43;;;;;;;6.10;5.50;;;25.30;85.30;;;;;;4959670;28;20463;-77
2022/09/05 10:08:04;;;;;;;7.00;6.30;;;25.40;84.90;;;;;;4920372;29;20473;-77
2022/09/05 10:11:17;;;;;;;6.40;5.90;;;25.50;84.50;;;;;;4958771;28;20494;-78
2022/09/05 10:14:42;;;;;;;7.53;5.93;;;25.50;84.50;;;;;;4957323;29;20468;-78
2022/09/05 10:17:48;;;;;;;6.60;5.40;;;25.50;84.60;;;;;;4958162;28;20446;-78
2022/09/05 10:21:01;;;;;;;7.13;6.30;;;25.60;84.60;;;;;;4958514;28;20822;-78
2022/09/05 10:24:11;;;;;;;6.37;5.87;;;25.70;84.20;;;;;;4958386;29;20462;-78
2022/09/05 10:27:05;;;;;;;6.03;5.60;;;25.70;84.30;;;;;;4957596;28;20549;-78
2022/09/05 10:29:47;;;;;;;7.47;5.83;;;25.80;84.10;;;;;;4957322;28;20573;-78
2022/09/05 10:32:20;;;;;;;7.13;6.00;;;25.80;83.80;;;;;;4959781;28;20473;-78
2022/09/05 10:35:17;;;;;;;6.37;5.77;;;25.80;83.70;;;;;;4959466;28;20443;-78
2022/09/05 10:37:58;;;;;;;6.13;5.53;;;25.80;83.60;;;;;;4959845;28;20509;-78
2022/09/05 10:40:35;;;;;;;7.37;5.70;;;25.90;83.40;;;;;;4957527;28;20474;-78
2022/09/05 10:43:28;;;;;;;5.70;5.20;;;25.90;83.40;;;;;;4957393;28;20465;-79
2022/09/05 10:46:06;;;;;;;8.77;5.07;;;26.00;83.60;;;;;;4959583;28;20425;-79
2022/09/05 10:48:46;;;;;;;5.90;5.40;;;26.00;83.90;;;;;;4958151;29;20508;-79
2022/09/05 10:51:28;;;;;;;6.73;5.83;;;26.10;83.70;;;;;;4959884;28;20458;-78
2022/09/05 10:54:16;;;;;;;5.70;5.20;;;26.20;83.30;;;;;;4958182;28;20429;-78
2022/09/05 10:56:49;;;;;;;5.97;5.37;;;26.20;82.90;;;;;;4957351;28;20494;-78
2022/09/05 10:59:24;;;;;;;5.33;4.80;;;26.20;82.90;;;;;;4958999;28;20466;-80
2022/09/05 11:02:18;;;;;;;6.47;4.97;;;26.30;83.10;;;;;;4957181;29;20442;-78
2022/09/05 11:05:16;;;;;;;10.40;5.03;;;26.30;83.00;;;;;;4958374;29;20447;-80
2022/09/05 11:07:51;;;;;;;6.00;5.17;;;26.40;82.90;;;;;;4958696;29;20969;-79
2022/09/05 11:10:25;;;;;;;5.40;4.90;;;26.40;83.00;;;;;;4958591;28;20845;-80
2022/09/05 11:13:06;;;;;;;5.77;5.27;;;26.50;83.00;;;;;;4960227;29;20450;-79
2022/09/05 11:15:46;;;;;;;6.90;5.90;;;26.50;82.90;;;;;;4959066;29;20439;-79
2022/09/05 11:19:01;;;;;;;6.97;6.27;;;26.50;82.80;;;;;;4957988;29;20461;-79
2022/09/05 11:21:39;;;;;;;7.60;4.40;;;26.60;82.50;;;;;;4955897;29;20506;-79
2022/09/05 11:24:24;;;;;;;6.37;4.93;;;26.70;82.50;;;;;;4958469;29;20806;-79
2022/09/05 11:27:00;;;;;;;6.60;5.00;;;26.70;82.40;;;;;;4958555;29;20823;-79
2022/09/05 11:29:50;;;;;;;6.03;5.37;;;26.80;82.50;;;;;;4958193;28;20484;-79
2022/09/05 11:32:54;;;;;;;6.03;4.97;;;26.80;82.60;;;;;;4959070;28;20861;-79
2022/09/05 11:35:46;;;;;;;5.53;5.03;;;26.90;82.70;;;;;;4958951;29;20454;-79
2022/09/05 11:39:03;;;;;;;5.37;4.87;;;27.00;82.60;;;;;;4959689;28;20478;-79
2022/09/05 11:42:10;;;;;;;5.90;5.40;;;27.00;82.80;;;;;;4960013;29;20443;-79
2022/09/05 11:44:55;;;;;;;5.10;4.67;;;27.10;82.30;;;;;;4958472;29;20466;-79
2022/09/05 11:47:58;;;;;;;7.03;5.40;;;27.10;82.10;;;;;;4958962;28;20454;-81
2022/09/05 11:51:14;;;;;;;5.30;4.80;;;27.20;82.00;;;;;;4960714;28;20486;-81
2022/09/05 11:54:37;;;;;;;7.67;4.67;;;27.20;82.10;;;;;;4927445;29;21016;-80
2022/09/05 11:57:40;;;;;;;5.40;4.90;;;27.30;82.20;;;;;;4867078;29;20446;-80
2022/09/05 12:00:18;;;;;;;4.80;4.40;;;27.30;81.90;;;;;;4919584;29;21045;-79
2022/09/05 12:03:45;;;;;;;6.07;5.57;;;27.40;81.90;;;;;;4958016;29;20515;-80
2022/09/05 12:06:59;;;;;;;5.70;5.10;;;27.40;81.50;;;;;;4960253;29;20910;-79
2022/09/05 12:09:47;;;;;;;5.60;5.10;;;27.40;81.60;;;;;;4959545;28;20558;-79
2022/09/05 12:12:34;;;;;;;5.10;4.70;;;27.40;81.60;;;;;;4957586;29;20465;-79
2022/09/05 12:15:25;;;;;;;7.70;7.00;;;27.40;81.80;;;;;;4958520;28;20435;-79
2022/09/05 12:18:03;;;;;;;6.10;5.50;;;27.50;81.80;;;;;;4962080;28;20450;-79
2022/09/05 12:20:57;;;;;;;7.33;5.80;;;27.50;82.30;;;;;;4961451;28;20867;-79
2022/09/05 12:23:32;;;;;;;6.80;6.20;;;27.50;81.90;;;;;;4961020;29;20489;-78
2022/09/05 12:26:25;;;;;;;8.47;5.27;;;27.50;81.20;;;;;;4961546;29;20811;-78
2022/09/05 12:29:18;;;;;;;5.93;5.23;;;27.50;81.30;;;;;;4961623;28;20450;-76
2022/09/05 12:32:12;;;;;;;6.33;4.90;;;27.60;81.10;;;;;;4958451;29;20442;-76
2022/09/05 12:35:02;;;;;;;5.20;4.73;;;27.60;80.90;;;;;;4961109;28;20449;-77
2022/09/05 12:37:56;;;;;;;4.87;4.47;;;27.60;80.90;;;;;;4960976;28;20973;-79
2022/09/05 12:40:51;;;;;;;7.20;5.57;;;27.60;80.80;;;;;;4962794;28;20496;-78
2022/09/05 12:43:46;;;;;;;4.93;4.47;;;27.70;81.50;;;;;;4958626;29;20494;-77
2022/09/05 12:46:45;;;;;;;5.40;4.70;;;27.70;80.60;;;;;;4959188;28;20445;-78
2022/09/05 12:49:23;;;;;;;6.03;5.43;;;27.70;80.60;;;;;;4957693;28;20521;-80
2022/09/05 12:52:04;;;;;;;5.43;4.93;;;27.80;80.40;;;;;;4964118;28;20478;-79
2022/09/05 12:54:42;;;;;;;5.83;5.23;;;27.80;80.40;;;;;;4964194;28;20435;-81
2022/09/05 12:57:20;;;;;;;5.60;4.30;;;27.80;80.40;;;;;;4963046;29;20453;-80
2022/09/05 13:00:14;;;;;;;5.93;5.40;;;27.90;80.40;;;;;;4962632;28;20482;-80
2022/09/05 13:03:04;;;;;;;8.23;6.50;;;27.90;80.10;;;;;;4962188;29;20470;-80
2022/09/05 13:06:07;;;;;;;7.80;4.70;;;28.00;80.00;;;;;;4963869;29;20438;-80
2022/09/05 13:08:46;;;;;;;8.57;4.70;;;28.00;79.90;;;;;;4963263;28;20446;-80
2022/09/05 13:11:21;;;;;;;5.17;4.43;;;28.10;79.60;;;;;;4965048;28;20536;-80
2022/09/05 13:14:18;;;;;;;5.30;4.80;;;28.10;79.40;;;;;;4964932;29;20477;-80
2022/09/05 13:17:09;;;;;;;7.57;4.70;;;28.10;79.10;;;;;;4965270;29;20451;-80
2022/09/05 13:19:44;;;;;;;6.00;5.43;;;28.10;79.10;;;;;;4964581;28;20490;-80
2022/09/05 13:22:18;;;;;;;13.03;6.00;;;28.10;78.90;;;;;;4964290;28;20423;-80
2022/09/05 13:24:52;;;;;;;5.03;4.63;;;28.10;78.80;;;;;;4961284;28;20481;-78
2022/09/05 13:27:26;;;;;;;8.47;5.53;;;28.10;78.50;;;;;;4960624;28;20517;-79
2022/09/05 13:29:57;;;;;;;5.37;4.87;;;28.10;78.40;;;;;;4960844;28;20518;-79
2022/09/05 13:32:48;;;;;;;7.83;5.33;;;28.10;78.40;;;;;;4960632;29;20427;-79
2022/09/05 13:35:52;;;;;;;5.43;5.00;;;28.20;78.40;;;;;;4959444;29;20447;-79
2022/09/05 13:38:54;;;;;;;8.33;5.33;;;28.30;78.50;;;;;;4960717;29;20928;-79
2022/09/05 13:41:28;;;;;;;5.23;4.73;;;28.40;78.30;;;;;;4959174;28;20513;-79
2022/09/05 13:43:58;;;;;;;5.90;5.30;;;28.40;79.00;;;;;;4959011;28;20850;-79
2022/09/05 13:46:53;;;;;;;6.07;5.57;;;28.50;78.30;;;;;;4959230;29;20439;-79
2022/09/05 13:49:31;;;;;;;5.67;5.17;;;28.50;77.90;;;;;;4961333;28;20478;-80
2022/09/05 13:52:16;;;;;;;6.07;5.47;;;28.50;77.80;;;;;;4959939;28;20616;-79
2022/09/05 13:54:50;;;;;;;6.17;5.40;;;28.50;77.70;;;;;;4961837;29;20446;-79
2022/09/05 13:57:30;;;;;;;5.33;4.83;;;28.40;77.70;;;;;;4960503;28;20443;-79
2022/09/05 14:00:52;;;;;;;6.73;5.93;;;28.40;77.60;;;;;;4959913;28;20541;-79
2022/09/05 14:03:48;;;;;;;6.27;5.63;;;28.40;77.60;;;;;;4960731;29;20509;-79
2022/09/05 14:06:47;;;;;;;5.10;4.60;;;28.40;77.70;;;;;;4959512;29;20486;-79
2022/09/05 14:09:34;;;;;;;5.57;5.07;;;28.50;77.80;;;;;;4957098;28;20451;-80
2022/09/05 14:12:15;;;;;;;6.43;5.67;;;28.50;77.70;;;;;;4961073;28;20423;-80
2022/09/05 14:14:48;;;;;;;5.50;5.00;;;28.60;77.70;;;;;;4959750;28;20865;-80
2022/09/05 14:17:58;;;;;;;6.73;5.50;;;28.60;77.60;;;;;;4958791;28;20498;-79
2022/09/05 14:23:20;;;;;;;8.00;5.53;;;28.70;77.30;;;;;;4959144;28;20541;-79
2022/09/05 14:25:53;;;;;;;7.43;5.17;;;28.70;77.20;;;;;;4959183;29;20493;-79
2022/09/05 14:28:27;;;;;;;5.93;5.33;;;28.70;77.10;;;;;;4960603;28;20435;-79
2022/09/05 14:31:04;;;;;;;9.10;6.00;;;28.70;77.00;;;;;;4958122;28;20470;-79
2022/09/05 14:34:23;;;;;;;9.03;6.00;;;28.80;76.80;;;;;;4960395;29;20910;-79
2022/09/05 14:37:19;;;;;;;6.03;5.50;;;28.80;76.70;;;;;;4960736;28;20945;-80
2022/09/05 14:40:42;;;;;;;6.10;4.50;;;28.70;76.90;;;;;;4958501;28;20992;-79
2022/09/05 14:43:46;;;;;;;5.60;5.20;;;28.70;76.60;;;;;;4959991;29;20453;-81
2022/09/05 14:46:37;;;;;;;5.90;5.30;;;28.80;76.80;;;;;;4958492;28;20581;-79
2022/09/05 14:49:27;;;;;;;6.83;5.07;;;28.80;76.60;;;;;;4959801;28;20469;-79
2022/09/05 14:51:56;;;;;;;6.17;5.67;;;28.80;76.50;;;;;;4960082;28;20517;-78
2022/09/05 14:54:27;;;;;;;6.20;5.60;;;28.80;76.50;;;;;;4957990;29;20480;-80
2022/09/05 14:57:19;;;;;;;6.10;5.50;;;28.80;76.30;;;;;;4957254;28;20451;-79
2022/09/05 15:00:16;;;;;;;5.97;5.43;;;28.80;76.30;;;;;;4959972;28;20957;-79
2022/09/05 15:03:08;;;;;;;5.97;5.47;;;28.80;76.50;;;;;;4959519;28;20777;-79
2022/09/05 15:05:40;;;;;;;6.50;5.30;;;28.90;76.60;;;;;;4958070;28;20475;-79
2022/09/05 15:08:11;;;;;;;6.20;5.70;;;28.80;76.50;;;;;;4958651;28;20463;-79